sensor_id;sensor_type;location;lat;lon;timestamp;temperature;humidity
16767;DHT22;8501;49.926;8.404;2022-12-18T00:01:50;-5.60;99.90
16767;DHT22;8501;49.926;8.404;2022-12-18T00:04:21;-5.70;99.90
16767;DHT22;8501;49.926;8.404;2022-12-18T00:06:47;-5.70;99.90
16767;DHT22;8501;49.926;8.404;2022-12-18T00:09:13;-5.80;99.90
16767;DHT22;8501;49.926;8.404;2022-12-18T00:11:38;-5.80;99.90
16767;DHT22;8501;49.926;8.404;2022-12-18T00:14:04;-5.70;99.90
16767;DHT22;8501;49.926;8.404;2022-12-18T00:16:29;-5.80;99.90
16767;DHT22;8501;49.926;8.404;2022-12-18T00:18:59;-5.90;99.90
16767;DHT22;8501;49.926;8.404;2022-12-18T00:21:26;-5.90;99.90
16767;DHT22;8501;49.926;8.404;2022-12-18T00:23:52;-5.90;99.90
16767;DHT22;8501;49.926;8.404;2022-12-18T00:26:38;-5.90;99.90
16767;DHT22;8501;49.926;8.404;2022-12-18T00:29:07;-5.90;99.90
16767;DHT22;8501;49.926;8.404;2022-12-18T00:31:34;-5.80;99.90
16767;DHT22;8501;49.926;8.404;2022-12-18T00:33:59;-5.90;99.90
16767;DHT22;8501;49.926;8.404;2022-12-18T00:36:28;-5.80;99.90
16767;DHT22;8501;49.926;8.404;2022-12-18T00:38:55;-5.80;99.90
16767;DHT22;8501;49.926;8.404;2022-12-18T00:41:21;-5.50;99.90
16767;DHT22;8501;49.926;8.404;2022-12-18T00:44:06;-6.00;99.90
16767;DHT22;8501;49.926;8.404;2022-12-18T00:46:32;-6.10;99.90
16767;DHT22;8501;49.926;8.404;2022-12-18T00:48:58;-6.10;99.90
16767;DHT22;8501;49.926;8.404;2022-12-18T00:51:24;-6.10;99.90
16767;DHT22;8501;49.926;8.404;2022-12-18T00:53:50;-6.20;99.90
16767;DHT22;8501;49.926;8.404;2022-12-18T00:56:15;-6.10;99.90
16767;DHT22;8501;49.926;8.404;2022-12-18T00:58:41;-6.10;99.90
16767;DHT22;8501;49.926;8.404;2022-12-18T01:01:07;-6.20;99.90
16767;DHT22;8501;49.926;8.404;2022-12-18T01:03:33;-6.10;99.90
16767;DHT22;8501;49.926;8.404;2022-12-18T01:05:59;-5.90;99.90
16767;DHT22;8501;49.926;8.404;2022-12-18T01:08:24;-5.90;99.90
16767;DHT22;8501;49.926;8.404;2022-12-18T01:10:50;-6.00;99.90
16767;DHT22;8501;49.926;8.404;2022-12-18T01:13:15;-6.10;99.90
16767;DHT22;8501;49.926;8.404;2022-12-18T01:15:48;-6.20;99.90
16767;DHT22;8501;49.926;8.404;2022-12-18T01:18:14;-6.30;99.90
16767;DHT22;8501;49.926;8.404;2022-12-18T01:20:40;-6.30;99.90
16767;DHT22;8501;49.926;8.404;2022-12-18T01:23:05;-6.30;99.90
16767;DHT22;8501;49.926;8.404;2022-12-18T01:25:31;-6.30;99.90
16767;DHT22;8501;49.926;8.404;2022-12-18T01:27:56;-6.30;99.90
16767;DHT22;8501;49.926;8.404;2022-12-18T01:30:22;-6.30;99.90
16767;DHT22;8501;49.926;8.404;2022-12-18T01:32:47;-6.40;99.90
16767;DHT22;8501;49.926;8.404;2022-12-18T01:35:13;-6.50;99.90
16767;DHT22;8501;49.926;8.404;2022-12-18T01:37:38;-6.30;99.90
16767;DHT22;8501;49.926;8.404;2022-12-18T01:40:04;-6.30;99.90
16767;DHT22;8501;49.926;8.404;2022-12-18T01:42:30;-6.30;99.90
16767;DHT22;8501;49.926;8.404;2022-12-18T01:47:35;-6.40;99.90
16767;DHT22;8501;49.926;8.404;2022-12-18T01:50:11;-6.40;99.90
16767;DHT22;8501;49.926;8.404;2022-12-18T01:52:38;-6.30;99.90
16767;DHT22;8501;49.926;8.404;2022-12-18T01:55:07;-6.40;99.90
16767;DHT22;8501;49.926;8.404;2022-12-18T01:57:33;-6.40;99.90
16767;DHT22;8501;49.926;8.404;2022-12-18T02:00:03;-6.30;99.90
16767;DHT22;8501;49.926;8.404;2022-12-18T02:02:30;-6.30;99.90
16767;DHT22;8501;49.926;8.404;2022-12-18T02:04:56;-6.40;99.90
16767;DHT22;8501;49.926;8.404;2022-12-18T02:07:28;-6.40;99.90
16767;DHT22;8501;49.926;8.404;2022-12-18T02:12:49;-6.40;99.90
16767;DHT22;8501;49.926;8.404;2022-12-18T02:15:32;-6.50;99.90
16767;DHT22;8501;49.926;8.404;2022-12-18T02:18:32;-6.60;99.90
16767;DHT22;8501;49.926;8.404;2022-12-18T02:21:36;-6.60;99.90
16767;DHT22;8501;49.926;8.404;2022-12-18T02:24:23;-6.50;99.90
16767;DHT22;8501;49.926;8.404;2022-12-18T02:26:59;-6.40;99.90
16767;DHT22;8501;49.926;8.404;2022-12-18T02:29:34;-6.40;99.90
16767;DHT22;8501;49.926;8.404;2022-12-18T02:32:06;-6.50;99.90
16767;DHT22;8501;49.926;8.404;2022-12-18T02:34:36;-6.60;99.90
16767;DHT22;8501;49.926;8.404;2022-12-18T02:37:06;-6.60;99.90
16767;DHT22;8501;49.926;8.404;2022-12-18T02:39:36;-6.60;99.90
16767;DHT22;8501;49.926;8.404;2022-12-18T02:42:03;-6.60;99.90
16767;DHT22;8501;49.926;8.404;2022-12-18T02:44:34;-6.60;99.90
16767;DHT22;8501;49.926;8.404;2022-12-18T02:47:00;-6.60;99.90
16767;DHT22;8501;49.926;8.404;2022-12-18T02:49:40;-6.70;99.90
16767;DHT22;8501;49.926;8.404;2022-12-18T02:52:28;-6.60;99.90
16767;DHT22;8501;49.926;8.404;2022-12-18T02:57:44;-6.60;99.90
16767;DHT22;8501;49.926;8.404;2022-12-18T03:00:23;-6.60;99.90
16767;DHT22;8501;49.926;8.404;2022-12-18T03:03:17;-6.70;99.90
16767;DHT22;8501;49.926;8.404;2022-12-18T03:05:52;-6.80;99.90
16767;DHT22;8501;49.926;8.404;2022-12-18T03:08:22;-6.70;99.90
16767;DHT22;8501;49.926;8.404;2022-12-18T03:11:09;-6.80;99.90
16767;DHT22;8501;49.926;8.404;2022-12-18T03:13:45;-6.70;99.90
16767;DHT22;8501;49.926;8.404;2022-12-18T03:16:17;-6.80;99.90
16767;DHT22;8501;49.926;8.404;2022-12-18T03:18:49;-6.80;99.90
16767;DHT22;8501;49.926;8.404;2022-12-18T03:21:19;-6.80;99.90
16767;DHT22;8501;49.926;8.404;2022-12-18T03:23:49;-6.70;99.90
16767;DHT22;8501;49.926;8.404;2022-12-18T03:26:19;-6.70;99.90
16767;DHT22;8501;49.926;8.404;2022-12-18T03:28:52;-6.80;99.90
16767;DHT22;8501;49.926;8.404;2022-12-18T03:31:20;-6.80;99.90
16767;DHT22;8501;49.926;8.404;2022-12-18T03:33:54;-6.80;99.90
16767;DHT22;8501;49.926;8.404;2022-12-18T03:36:20;-6.80;99.90
16767;DHT22;8501;49.926;8.404;2022-12-18T03:38:46;-6.80;99.90
16767;DHT22;8501;49.926;8.404;2022-12-18T03:46:40;-6.80;99.90
16767;DHT22;8501;49.926;8.404;2022-12-18T03:49:14;-7.00;99.90
16767;DHT22;8501;49.926;8.404;2022-12-18T03:51:53;-7.00;99.90
16767;DHT22;8501;49.926;8.404;2022-12-18T03:54:20;-7.00;99.90
16767;DHT22;8501;49.926;8.404;2022-12-18T03:56:51;-7.00;99.90
16767;DHT22;8501;49.926;8.404;2022-12-18T03:59:19;-7.00;99.90
16767;DHT22;8501;49.926;8.404;2022-12-18T04:01:51;-7.00;99.90
16767;DHT22;8501;49.926;8.404;2022-12-18T04:04:18;-7.00;99.90
16767;DHT22;8501;49.926;8.404;2022-12-18T04:06:46;-6.90;99.90
16767;DHT22;8501;49.926;8.404;2022-12-18T04:09:13;-7.00;99.90
16767;DHT22;8501;49.926;8.404;2022-12-18T04:11:41;-7.00;99.90
16767;DHT22;8501;49.926;8.404;2022-12-18T04:14:07;-7.00;99.90
16767;DHT22;8501;49.926;8.404;2022-12-18T04:16:32;-7.10;99.90
16767;DHT22;8501;49.926;8.404;2022-12-18T04:18:58;-7.10;99.90
16767;DHT22;8501;49.926;8.404;2022-12-18T04:21:24;-7.20;99.90
16767;DHT22;8501;49.926;8.404;2022-12-18T04:23:49;-7.20;99.90
16767;DHT22;8501;49.926;8.404;2022-12-18T04:26:15;-7.20;99.90
16767;DHT22;8501;49.926;8.404;2022-12-18T04:28:40;-7.20;99.90
16767;DHT22;8501;49.926;8.404;2022-12-18T04:31:06;-7.10;99.90
16767;DHT22;8501;49.926;8.404;2022-12-18T04:33:31;-7.20;99.90
16767;DHT22;8501;49.926;8.404;2022-12-18T04:35:57;-7.30;99.90
16767;DHT22;8501;49.926;8.404;2022-12-18T04:38:23;-7.20;99.90
16767;DHT22;8501;49.926;8.404;2022-12-18T04:40:48;-7.20;99.90
16767;DHT22;8501;49.926;8.404;2022-12-18T04:43:14;-7.20;99.90
16767;DHT22;8501;49.926;8.404;2022-12-18T04:45:39;-7.10;99.90
16767;DHT22;8501;49.926;8.404;2022-12-18T04:48:05;-7.10;99.90
16767;DHT22;8501;49.926;8.404;2022-12-18T04:50:31;-7.10;99.90
16767;DHT22;8501;49.926;8.404;2022-12-18T04:52:56;-7.10;99.90
16767;DHT22;8501;49.926;8.404;2022-12-18T04:55:25;-7.10;99.90
16767;DHT22;8501;49.926;8.404;2022-12-18T04:57:51;-7.10;99.90
16767;DHT22;8501;49.926;8.404;2022-12-18T05:00:16;-7.20;99.90
16767;DHT22;8501;49.926;8.404;2022-12-18T05:02:42;-7.10;99.90
16767;DHT22;8501;49.926;8.404;2022-12-18T05:05:08;-7.10;99.90
16767;DHT22;8501;49.926;8.404;2022-12-18T05:07:33;-7.10;99.90
16767;DHT22;8501;49.926;8.404;2022-12-18T05:09:59;-7.20;99.90
16767;DHT22;8501;49.926;8.404;2022-12-18T05:12:25;-7.20;99.90
16767;DHT22;8501;49.926;8.404;2022-12-18T05:14:50;-7.20;99.90
16767;DHT22;8501;49.926;8.404;2022-12-18T05:17:16;-7.20;99.90
16767;DHT22;8501;49.926;8.404;2022-12-18T05:19:42;-7.20;99.90
16767;DHT22;8501;49.926;8.404;2022-12-18T05:22:08;-7.20;99.90
16767;DHT22;8501;49.926;8.404;2022-12-18T05:24:33;-7.10;99.90
16767;DHT22;8501;49.926;8.404;2022-12-18T05:26:59;-7.20;99.90
16767;DHT22;8501;49.926;8.404;2022-12-18T05:29:25;-7.30;99.90
16767;DHT22;8501;49.926;8.404;2022-12-18T05:31:50;-7.40;99.90
16767;DHT22;8501;49.926;8.404;2022-12-18T05:34:16;-7.30;99.90
16767;DHT22;8501;49.926;8.404;2022-12-18T05:36:41;-7.40;99.90
16767;DHT22;8501;49.926;8.404;2022-12-18T05:39:07;-7.30;99.90
16767;DHT22;8501;49.926;8.404;2022-12-18T05:41:32;-7.20;99.90
16767;DHT22;8501;49.926;8.404;2022-12-18T05:43:59;-7.20;99.90
16767;DHT22;8501;49.926;8.404;2022-12-18T05:46:24;-7.10;99.90
16767;DHT22;8501;49.926;8.404;2022-12-18T05:48:50;-7.10;99.90
16767;DHT22;8501;49.926;8.404;2022-12-18T05:51:18;-7.00;99.90
16767;DHT22;8501;49.926;8.404;2022-12-18T05:53:44;-7.00;99.90
16767;DHT22;8501;49.926;8.404;2022-12-18T05:56:19;-6.60;99.90
16767;DHT22;8501;49.926;8.404;2022-12-18T05:58:45;-7.00;99.90
16767;DHT22;8501;49.926;8.404;2022-12-18T06:03:36;-7.00;99.90
16767;DHT22;8501;49.926;8.404;2022-12-18T06:06:02;-7.00;99.90
16767;DHT22;8501;49.926;8.404;2022-12-18T06:08:28;-7.00;99.90
16767;DHT22;8501;49.926;8.404;2022-12-18T06:10:54;-6.90;99.90
16767;DHT22;8501;49.926;8.404;2022-12-18T06:13:20;-6.90;99.90
16767;DHT22;8501;49.926;8.404;2022-12-18T06:15:46;-6.90;99.90
16767;DHT22;8501;49.926;8.404;2022-12-18T06:18:11;-6.90;99.90
16767;DHT22;8501;49.926;8.404;2022-12-18T06:20:37;-6.90;99.90
16767;DHT22;8501;49.926;8.404;2022-12-18T06:23:06;-6.90;99.90
16767;DHT22;8501;49.926;8.404;2022-12-18T06:25:32;-6.90;99.90
16767;DHT22;8501;49.926;8.404;2022-12-18T06:27:58;-7.00;99.90
16767;DHT22;8501;49.926;8.404;2022-12-18T06:30:24;-7.00;99.90
16767;DHT22;8501;49.926;8.404;2022-12-18T06:32:49;-7.10;99.90
16767;DHT22;8501;49.926;8.404;2022-12-18T06:35:15;-7.20;99.90
16767;DHT22;8501;49.926;8.404;2022-12-18T06:37:41;-7.20;99.90
16767;DHT22;8501;49.926;8.404;2022-12-18T06:40:06;-7.20;99.90
16767;DHT22;8501;49.926;8.404;2022-12-18T06:42:32;-7.20;99.90
16767;DHT22;8501;49.926;8.404;2022-12-18T06:44:58;-7.30;99.90
16767;DHT22;8501;49.926;8.404;2022-12-18T06:47:24;-7.30;99.90
16767;DHT22;8501;49.926;8.404;2022-12-18T06:49:49;-7.30;99.90
16767;DHT22;8501;49.926;8.404;2022-12-18T06:52:16;-7.30;99.90
16767;DHT22;8501;49.926;8.404;2022-12-18T06:54:41;-7.40;99.90
16767;DHT22;8501;49.926;8.404;2022-12-18T06:57:07;-7.40;99.90
16767;DHT22;8501;49.926;8.404;2022-12-18T06:59:33;-7.40;99.90
16767;DHT22;8501;49.926;8.404;2022-12-18T07:01:58;-7.30;99.90
16767;DHT22;8501;49.926;8.404;2022-12-18T07:04:28;-7.30;99.90
16767;DHT22;8501;49.926;8.404;2022-12-18T07:06:54;-7.30;99.90
16767;DHT22;8501;49.926;8.404;2022-12-18T07:09:20;-7.30;99.90
16767;DHT22;8501;49.926;8.404;2022-12-18T07:11:45;-7.20;99.90
16767;DHT22;8501;49.926;8.404;2022-12-18T07:14:11;-7.20;99.90
16767;DHT22;8501;49.926;8.404;2022-12-18T07:16:36;-7.20;99.90
16767;DHT22;8501;49.926;8.404;2022-12-18T07:19:02;-7.20;99.90
16767;DHT22;8501;49.926;8.404;2022-12-18T07:21:27;-7.30;99.90
16767;DHT22;8501;49.926;8.404;2022-12-18T07:23:53;-7.30;99.90
16767;DHT22;8501;49.926;8.404;2022-12-18T07:26:20;-7.40;99.90
16767;DHT22;8501;49.926;8.404;2022-12-18T07:28:46;-7.50;99.90
16767;DHT22;8501;49.926;8.404;2022-12-18T07:31:14;-7.40;99.90
16767;DHT22;8501;49.926;8.404;2022-12-18T07:33:41;-7.40;99.90
16767;DHT22;8501;49.926;8.404;2022-12-18T07:36:07;-7.30;99.90
16767;DHT22;8501;49.926;8.404;2022-12-18T07:38:34;-7.20;99.90
16767;DHT22;8501;49.926;8.404;2022-12-18T07:41:05;-7.30;99.90
16767;DHT22;8501;49.926;8.404;2022-12-18T07:43:30;-7.20;99.90
16767;DHT22;8501;49.926;8.404;2022-12-18T07:45:56;-7.30;99.90
16767;DHT22;8501;49.926;8.404;2022-12-18T07:48:22;-7.20;99.90
16767;DHT22;8501;49.926;8.404;2022-12-18T07:50:47;-7.20;99.90
16767;DHT22;8501;49.926;8.404;2022-12-18T07:53:13;-7.20;99.90
16767;DHT22;8501;49.926;8.404;2022-12-18T07:55:40;-7.30;99.90
16767;DHT22;8501;49.926;8.404;2022-12-18T07:58:06;-7.30;99.90
16767;DHT22;8501;49.926;8.404;2022-12-18T08:00:32;-7.30;99.90
16767;DHT22;8501;49.926;8.404;2022-12-18T08:02:58;-7.30;99.90
16767;DHT22;8501;49.926;8.404;2022-12-18T08:05:24;-7.30;99.90
16767;DHT22;8501;49.926;8.404;2022-12-18T08:07:49;-7.40;99.90
16767;DHT22;8501;49.926;8.404;2022-12-18T08:10:15;-7.30;99.90
16767;DHT22;8501;49.926;8.404;2022-12-18T08:12:41;-7.30;99.90
16767;DHT22;8501;49.926;8.404;2022-12-18T08:15:07;-7.30;99.90
16767;DHT22;8501;49.926;8.404;2022-12-18T08:17:33;-7.30;99.90
16767;DHT22;8501;49.926;8.404;2022-12-18T08:19:58;-7.10;99.90
16767;DHT22;8501;49.926;8.404;2022-12-18T08:22:24;-6.90;99.90
16767;DHT22;8501;49.926;8.404;2022-12-18T08:24:49;-6.80;99.90
16767;DHT22;8501;49.926;8.404;2022-12-18T08:27:15;-6.80;99.90
16767;DHT22;8501;49.926;8.404;2022-12-18T08:29:40;-6.70;99.90
16767;DHT22;8501;49.926;8.404;2022-12-18T08:32:06;-6.70;99.90
16767;DHT22;8501;49.926;8.404;2022-12-18T08:34:31;-6.70;99.90
16767;DHT22;8501;49.926;8.404;2022-12-18T08:36:57;-6.60;99.90
16767;DHT22;8501;49.926;8.404;2022-12-18T08:39:23;-6.50;99.90
16767;DHT22;8501;49.926;8.404;2022-12-18T08:41:49;-6.40;99.90
16767;DHT22;8501;49.926;8.404;2022-12-18T08:44:34;-6.50;99.90
16767;DHT22;8501;49.926;8.404;2022-12-18T08:47:03;-6.50;99.90
16767;DHT22;8501;49.926;8.404;2022-12-18T08:49:29;-6.50;99.90
16767;DHT22;8501;49.926;8.404;2022-12-18T08:51:55;-6.60;99.90
16767;DHT22;8501;49.926;8.404;2022-12-18T08:54:22;-6.50;99.90
16767;DHT22;8501;49.926;8.404;2022-12-18T08:56:48;-6.70;99.90
16767;DHT22;8501;49.926;8.404;2022-12-18T08:59:15;-6.70;99.90
16767;DHT22;8501;49.926;8.404;2022-12-18T09:01:40;-6.70;99.90
16767;DHT22;8501;49.926;8.404;2022-12-18T09:04:07;-6.60;99.90
16767;DHT22;8501;49.926;8.404;2022-12-18T09:06:32;-6.60;99.90
16767;DHT22;8501;49.926;8.404;2022-12-18T09:08:58;-6.60;99.90
16767;DHT22;8501;49.926;8.404;2022-12-18T09:11:26;-6.60;99.90
16767;DHT22;8501;49.926;8.404;2022-12-18T09:13:52;-6.80;99.90
16767;DHT22;8501;49.926;8.404;2022-12-18T09:16:18;-6.70;99.90
16767;DHT22;8501;49.926;8.404;2022-12-18T09:18:45;-6.70;99.90
16767;DHT22;8501;49.926;8.404;2022-12-18T09:21:15;-6.60;99.90
16767;DHT22;8501;49.926;8.404;2022-12-18T09:23:42;-6.70;99.90
16767;DHT22;8501;49.926;8.404;2022-12-18T09:26:08;-6.70;99.90
16767;DHT22;8501;49.926;8.404;2022-12-18T09:28:33;-6.70;99.90
16767;DHT22;8501;49.926;8.404;2022-12-18T09:31:04;-6.80;99.90
16767;DHT22;8501;49.926;8.404;2022-12-18T09:33:30;-6.70;99.90
16767;DHT22;8501;49.926;8.404;2022-12-18T09:35:56;-6.70;99.90
16767;DHT22;8501;49.926;8.404;2022-12-18T09:38:21;-6.60;99.90
16767;DHT22;8501;49.926;8.404;2022-12-18T09:40:51;-6.50;99.90
16767;DHT22;8501;49.926;8.404;2022-12-18T09:46:06;-6.40;99.90
16767;DHT22;8501;49.926;8.404;2022-12-18T09:48:35;-6.30;99.90
16767;DHT22;8501;49.926;8.404;2022-12-18T09:51:22;-6.40;99.90
16767;DHT22;8501;49.926;8.404;2022-12-18T09:53:56;-6.30;99.90
16767;DHT22;8501;49.926;8.404;2022-12-18T09:56:23;-6.10;99.90
16767;DHT22;8501;49.926;8.404;2022-12-18T09:58:58;-6.10;99.90
16767;DHT22;8501;49.926;8.404;2022-12-18T10:01:25;-6.00;99.90
16767;DHT22;8501;49.926;8.404;2022-12-18T10:03:53;-6.00;99.90
16767;DHT22;8501;49.926;8.404;2022-12-18T10:09:34;-5.90;99.90
16767;DHT22;8501;49.926;8.404;2022-12-18T10:12:17;-5.80;99.90
16767;DHT22;8501;49.926;8.404;2022-12-18T10:17:23;-5.70;99.90
16767;DHT22;8501;49.926;8.404;2022-12-18T10:19:52;-5.60;99.90
16767;DHT22;8501;49.926;8.404;2022-12-18T10:27:45;-5.50;99.90
16767;DHT22;8501;49.926;8.404;2022-12-18T10:30:15;-5.40;99.90
16767;DHT22;8501;49.926;8.404;2022-12-18T10:32:41;-5.30;99.90
16767;DHT22;8501;49.926;8.404;2022-12-18T10:35:15;-5.40;99.90
16767;DHT22;8501;49.926;8.404;2022-12-18T10:38:32;-5.40;99.90
16767;DHT22;8501;49.926;8.404;2022-12-18T10:41:05;-5.30;99.90
16767;DHT22;8501;49.926;8.404;2022-12-18T10:43:36;-5.20;99.90
16767;DHT22;8501;49.926;8.404;2022-12-18T10:48:28;-5.00;99.90
16767;DHT22;8501;49.926;8.404;2022-12-18T10:50:55;-4.90;99.90
16767;DHT22;8501;49.926;8.404;2022-12-18T10:53:26;-4.90;99.90
16767;DHT22;8501;49.926;8.404;2022-12-18T10:55:54;-4.70;99.90
16767;DHT22;8501;49.926;8.404;2022-12-18T10:58:24;-4.70;99.90
16767;DHT22;8501;49.926;8.404;2022-12-18T11:03:42;-4.50;99.90
16767;DHT22;8501;49.926;8.404;2022-12-18T11:06:11;-4.40;99.90
16767;DHT22;8501;49.926;8.404;2022-12-18T11:08:37;-4.40;99.90
16767;DHT22;8501;49.926;8.404;2022-12-18T11:11:04;-4.30;99.90
16767;DHT22;8501;49.926;8.404;2022-12-18T11:13:31;-4.30;99.90
16767;DHT22;8501;49.926;8.404;2022-12-18T11:15:58;-4.20;99.90
16767;DHT22;8501;49.926;8.404;2022-12-18T11:18:35;-4.20;99.90
16767;DHT22;8501;49.926;8.404;2022-12-18T11:21:09;-4.10;99.90
16767;DHT22;8501;49.926;8.404;2022-12-18T11:23:49;-4.00;99.90
16767;DHT22;8501;49.926;8.404;2022-12-18T11:26:15;-4.00;99.90
16767;DHT22;8501;49.926;8.404;2022-12-18T11:28:51;-3.90;99.90
16767;DHT22;8501;49.926;8.404;2022-12-18T11:31:27;-3.90;99.90
16767;DHT22;8501;49.926;8.404;2022-12-18T11:34:00;-3.90;99.90
16767;DHT22;8501;49.926;8.404;2022-12-18T11:36:32;-3.90;99.90
16767;DHT22;8501;49.926;8.404;2022-12-18T11:39:07;-3.70;99.90
16767;DHT22;8501;49.926;8.404;2022-12-18T11:44:41;-3.70;99.90
16767;DHT22;8501;49.926;8.404;2022-12-18T11:49:41;-3.70;99.90
16767;DHT22;8501;49.926;8.404;2022-12-18T11:52:11;-3.60;99.90
16767;DHT22;8501;49.926;8.404;2022-12-18T11:54:39;-3.60;99.90
16767;DHT22;8501;49.926;8.404;2022-12-18T11:57:34;-3.60;99.90
16767;DHT22;8501;49.926;8.404;2022-12-18T12:00:12;-3.60;99.90
16767;DHT22;8501;49.926;8.404;2022-12-18T12:06:16;-3.60;99.90
16767;DHT22;8501;49.926;8.404;2022-12-18T12:11:57;-3.50;99.90
16767;DHT22;8501;49.926;8.404;2022-12-18T12:14:44;-3.50;99.90
16767;DHT22;8501;49.926;8.404;2022-12-18T12:17:32;-3.50;99.90
16767;DHT22;8501;49.926;8.404;2022-12-18T12:22:45;-3.40;99.90
16767;DHT22;8501;49.926;8.404;2022-12-18T12:28:09;-3.30;99.90
16767;DHT22;8501;49.926;8.404;2022-12-18T12:30:54;-3.30;99.90
16767;DHT22;8501;49.926;8.404;2022-12-18T12:33:26;-3.30;99.90
16767;DHT22;8501;49.926;8.404;2022-12-18T12:36:08;-3.30;99.90
16767;DHT22;8501;49.926;8.404;2022-12-18T12:38:45;-3.30;99.90
16767;DHT22;8501;49.926;8.404;2022-12-18T12:41:17;-3.30;99.90
16767;DHT22;8501;49.926;8.404;2022-12-18T12:44:05;-3.30;99.90
16767;DHT22;8501;49.926;8.404;2022-12-18T12:46:36;-3.20;99.90
16767;DHT22;8501;49.926;8.404;2022-12-18T12:49:08;-3.20;99.90
16767;DHT22;8501;49.926;8.404;2022-12-18T12:51:37;-3.30;99.90
16767;DHT22;8501;49.926;8.404;2022-12-18T12:54:06;-3.20;99.90
16767;DHT22;8501;49.926;8.404;2022-12-18T12:56:49;-3.30;99.90
16767;DHT22;8501;49.926;8.404;2022-12-18T12:59:22;-3.30;99.90
16767;DHT22;8501;49.926;8.404;2022-12-18T13:02:00;-3.30;99.90
16767;DHT22;8501;49.926;8.404;2022-12-18T13:05:00;-3.30;99.90
16767;DHT22;8501;49.926;8.404;2022-12-18T13:07:35;-3.20;99.90
16767;DHT22;8501;49.926;8.404;2022-12-18T13:20:47;-3.20;99.90
16767;DHT22;8501;49.926;8.404;2022-12-18T13:25:50;-3.10;99.90
16767;DHT22;8501;49.926;8.404;2022-12-18T13:30:47;-3.10;99.90
16767;DHT22;8501;49.926;8.404;2022-12-18T13:40:59;-3.20;99.90
16767;DHT22;8501;49.926;8.404;2022-12-18T13:43:31;-3.10;99.90
16767;DHT22;8501;49.926;8.404;2022-12-18T13:51:43;-3.10;99.90
16767;DHT22;8501;49.926;8.404;2022-12-18T13:54:37;-3.00;99.90
16767;DHT22;8501;49.926;8.404;2022-12-18T13:57:25;-3.10;99.90
16767;DHT22;8501;49.926;8.404;2022-12-18T13:59:51;-3.00;99.90
16767;DHT22;8501;49.926;8.404;2022-12-18T14:02:21;-3.00;99.90
16767;DHT22;8501;49.926;8.404;2022-12-18T14:04:48;-3.00;99.90
16767;DHT22;8501;49.926;8.404;2022-12-18T14:09:43;-3.00;99.90
16767;DHT22;8501;49.926;8.404;2022-12-18T14:12:31;-3.00;99.90
16767;DHT22;8501;49.926;8.404;2022-12-18T14:20:44;-3.00;99.90
16767;DHT22;8501;49.926;8.404;2022-12-18T14:23:33;-3.00;99.90
16767;DHT22;8501;49.926;8.404;2022-12-18T14:26:01;-3.00;99.90
16767;DHT22;8501;49.926;8.404;2022-12-18T14:28:27;-3.00;99.90
16767;DHT22;8501;49.926;8.404;2022-12-18T14:30:53;-3.00;99.90
16767;DHT22;8501;49.926;8.404;2022-12-18T14:33:25;-3.00;99.90
16767;DHT22;8501;49.926;8.404;2022-12-18T14:35:57;-3.00;99.90
16767;DHT22;8501;49.926;8.404;2022-12-18T14:38:35;-3.00;99.90
16767;DHT22;8501;49.926;8.404;2022-12-18T14:41:03;-3.10;99.90
16767;DHT22;8501;49.926;8.404;2022-12-18T14:43:35;-3.10;99.90
16767;DHT22;8501;49.926;8.404;2022-12-18T14:46:03;-2.90;99.90
16767;DHT22;8501;49.926;8.404;2022-12-18T14:48:40;-3.10;99.90
16767;DHT22;8501;49.926;8.404;2022-12-18T14:51:23;-3.00;99.90
16767;DHT22;8501;49.926;8.404;2022-12-18T14:54:04;-3.10;99.90
16767;DHT22;8501;49.926;8.404;2022-12-18T14:56:37;-3.10;99.90
16767;DHT22;8501;49.926;8.404;2022-12-18T14:59:21;-3.10;99.90
16767;DHT22;8501;49.926;8.404;2022-12-18T15:04:27;-3.20;99.90
16767;DHT22;8501;49.926;8.404;2022-12-18T15:07:26;-3.20;99.90
16767;DHT22;8501;49.926;8.404;2022-12-18T15:20:54;-3.20;99.90
16767;DHT22;8501;49.926;8.404;2022-12-18T15:23:25;-3.10;99.90
16767;DHT22;8501;49.926;8.404;2022-12-18T15:25:59;-3.00;99.90
16767;DHT22;8501;49.926;8.404;2022-12-18T15:28:31;-3.30;99.90
16767;DHT22;8501;49.926;8.404;2022-12-18T15:33:39;-3.20;99.90
16767;DHT22;8501;49.926;8.404;2022-12-18T15:36:09;-3.20;99.90
16767;DHT22;8501;49.926;8.404;2022-12-18T15:38:35;-3.20;99.90
16767;DHT22;8501;49.926;8.404;2022-12-18T15:41:01;-3.20;99.90
16767;DHT22;8501;49.926;8.404;2022-12-18T15:43:27;-3.20;99.90
16767;DHT22;8501;49.926;8.404;2022-12-18T15:46:00;-3.20;99.90
16767;DHT22;8501;49.926;8.404;2022-12-18T15:48:26;-3.20;99.90
16767;DHT22;8501;49.926;8.404;2022-12-18T15:50:52;-3.20;99.90
16767;DHT22;8501;49.926;8.404;2022-12-18T15:53:19;-3.20;99.90
16767;DHT22;8501;49.926;8.404;2022-12-18T15:55:45;-3.20;99.90
16767;DHT22;8501;49.926;8.404;2022-12-18T15:58:32;-3.20;99.90
16767;DHT22;8501;49.926;8.404;2022-12-18T16:00:59;-3.20;99.90
16767;DHT22;8501;49.926;8.404;2022-12-18T16:03:25;-3.20;99.90
16767;DHT22;8501;49.926;8.404;2022-12-18T16:05:51;-3.20;99.90
16767;DHT22;8501;49.926;8.404;2022-12-18T16:08:16;-3.50;99.90
16767;DHT22;8501;49.926;8.404;2022-12-18T16:10:42;-3.30;99.90
16767;DHT22;8501;49.926;8.404;2022-12-18T16:13:13;-3.20;99.90
16767;DHT22;8501;49.926;8.404;2022-12-18T16:15:40;-3.30;99.90
16767;DHT22;8501;49.926;8.404;2022-12-18T16:18:08;-3.30;99.90
16767;DHT22;8501;49.926;8.404;2022-12-18T16:20:33;-3.10;99.90
16767;DHT22;8501;49.926;8.404;2022-12-18T16:22:59;-3.20;99.90
16767;DHT22;8501;49.926;8.404;2022-12-18T16:25:26;-3.30;99.90
16767;DHT22;8501;49.926;8.404;2022-12-18T16:27:52;-3.30;99.90
16767;DHT22;8501;49.926;8.404;2022-12-18T16:30:23;-3.30;99.90
16767;DHT22;8501;49.926;8.404;2022-12-18T16:32:49;-3.30;99.90
16767;DHT22;8501;49.926;8.404;2022-12-18T16:35:16;-3.30;99.90
16767;DHT22;8501;49.926;8.404;2022-12-18T16:37:42;-3.10;99.90
16767;DHT22;8501;49.926;8.404;2022-12-18T16:40:10;-3.20;99.90
16767;DHT22;8501;49.926;8.404;2022-12-18T16:42:41;-3.30;99.90
16767;DHT22;8501;49.926;8.404;2022-12-18T16:45:09;-3.20;99.90
16767;DHT22;8501;49.926;8.404;2022-12-18T16:47:35;-3.20;99.90
16767;DHT22;8501;49.926;8.404;2022-12-18T16:50:00;-3.30;99.90
16767;DHT22;8501;49.926;8.404;2022-12-18T16:52:28;-3.30;99.90
16767;DHT22;8501;49.926;8.404;2022-12-18T16:54:54;-3.30;99.90
16767;DHT22;8501;49.926;8.404;2022-12-18T16:57:20;-3.20;99.90
16767;DHT22;8501;49.926;8.404;2022-12-18T16:59:46;-3.30;99.90
16767;DHT22;8501;49.926;8.404;2022-12-18T17:02:23;-3.30;99.90
16767;DHT22;8501;49.926;8.404;2022-12-18T17:04:51;-3.30;99.90
16767;DHT22;8501;49.926;8.404;2022-12-18T17:07:17;-3.30;99.90
16767;DHT22;8501;49.926;8.404;2022-12-18T17:09:42;-3.30;99.90
16767;DHT22;8501;49.926;8.404;2022-12-18T17:12:08;-3.30;99.90
16767;DHT22;8501;49.926;8.404;2022-12-18T17:14:35;-3.30;99.90
16767;DHT22;8501;49.926;8.404;2022-12-18T17:17:01;-3.30;99.90
16767;DHT22;8501;49.926;8.404;2022-12-18T17:22:04;-3.40;99.90
16767;DHT22;8501;49.926;8.404;2022-12-18T17:24:30;-3.40;99.90
16767;DHT22;8501;49.926;8.404;2022-12-18T17:26:55;-3.30;99.90
16767;DHT22;8501;49.926;8.404;2022-12-18T17:29:21;-3.30;99.90
16767;DHT22;8501;49.926;8.404;2022-12-18T17:31:47;-3.30;99.90
16767;DHT22;8501;49.926;8.404;2022-12-18T17:34:13;-3.20;99.90
16767;DHT22;8501;49.926;8.404;2022-12-18T17:36:39;-3.20;99.90
16767;DHT22;8501;49.926;8.404;2022-12-18T17:39:06;-3.20;99.90
16767;DHT22;8501;49.926;8.404;2022-12-18T17:41:32;-3.20;99.90
16767;DHT22;8501;49.926;8.404;2022-12-18T17:44:00;-3.20;99.90
16767;DHT22;8501;49.926;8.404;2022-12-18T17:46:28;-3.20;99.90
16767;DHT22;8501;49.926;8.404;2022-12-18T17:48:55;-3.20;99.90